Time;durP1;ratioP1;P1;durP2;ratioP2;P2;SDS_P1;SDS_P2;PMS_P1;PMS_P2;Temp;Humidity;BMP_temperature;BMP_pressure;BME280_temperature;BME280_humidity;BME280_pressure;Samples;Min_cycle;Max_cycle;Signal;HPM_P1;HPM_P2
2023/05/15 00:01:05;;;;;;;7.97;5.97;;;11.30;71.60;;;;;;5077478;28;46376;-66
2023/05/15 00:03:31;;;;;;;7.50;5.73;;;11.30;71.80;;;;;;5076909;28;46709;-66
2023/05/15 00:05:57;;;;;;;10.70;6.13;;;11.20;71.90;;;;;;5076001;28;46365;-67
2023/05/15 00:08:22;;;;;;;10.60;5.60;;;11.20;72.00;;;;;;5078336;28;45766;-66
2023/05/15 00:10:48;;;;;;;10.07;6.23;;;11.30;71.90;;;;;;5079016;28;46273;-66
2023/05/15 00:13:15;;;;;;;11.07;7.70;;;11.30;71.90;;;;;;5079613;27;46168;-66
2023/05/15 00:15:41;;;;;;;14.93;9.23;;;11.10;72.40;;;;;;5082285;28;46393;-66
2023/05/15 00:18:07;;;;;;;15.53;9.30;;;11.10;73.70;;;;;;5082691;28;46470;-66
2023/05/15 00:20:32;;;;;;;13.30;9.30;;;11.20;72.50;;;;;;5080583;28;46381;-66
2023/05/15 00:22:58;;;;;;;14.00;9.73;;;11.20;72.30;;;;;;5079602;28;46606;-64
2023/05/15 00:25:23;;;;;;;12.93;9.30;;;11.30;72.00;;;;;;5077034;28;49451;-65
2023/05/15 00:27:49;;;;;;;15.97;9.83;;;11.30;71.80;;;;;;5081466;28;46365;-65
2023/05/15 00:30:15;;;;;;;13.87;8.87;;;11.40;71.70;;;;;;5083700;28;46431;-65
2023/05/15 00:32:41;;;;;;;12.60;9.10;;;11.40;71.40;;;;;;5082351;28;46393;-65
2023/05/15 00:35:07;;;;;;;16.47;10.10;;;11.40;71.30;;;;;;5077987;28;46628;-65
2023/05/15 00:37:32;;;;;;;13.47;10.03;;;11.40;71.40;;;;;;5077842;28;46223;-66
2023/05/15 00:39:58;;;;;;;15.00;10.73;;;11.40;71.10;;;;;;5081618;28;46470;-66
2023/05/15 00:42:24;;;;;;;18.53;11.27;;;11.40;71.20;;;;;;5080966;28;46078;-66
2023/05/15 00:44:51;;;;;;;19.03;12.20;;;11.40;72.30;;;;;;5079312;28;46376;-66
2023/05/15 00:47:19;;;;;;;15.67;11.73;;;11.50;71.30;;;;;;5081218;28;46774;-66
2023/05/15 00:49:46;;;;;;;17.43;11.67;;;11.40;71.20;;;;;;5080285;28;46443;-67
2023/05/15 00:52:12;;;;;;;17.10;11.67;;;11.40;71.40;;;;;;5081597;28;46791;-66
2023/05/15 00:54:38;;;;;;;19.83;13.70;;;11.40;71.50;;;;;;5079154;28;47127;-66
2023/05/15 00:57:05;;;;;;;17.47;12.50;;;11.30;71.50;;;;;;5082140;28;46301;-66
2023/05/15 00:59:32;;;;;;;17.87;12.43;;;11.30;71.70;;;;;;5077035;28;46595;-66
2023/05/15 01:01:57;;;;;;;19.50;12.50;;;11.30;71.80;;;;;;5082641;28;46509;-66
2023/05/15 01:04:23;;;;;;;19.13;12.80;;;11.30;71.80;;;;;;5078243;28;46521;-65
2023/05/15 01:06:52;;;;;;;16.97;12.00;;;11.30;73.00;;;;;;5077821;28;46429;-65
2023/05/15 01:09:19;;;;;;;17.27;10.77;;;11.30;71.90;;;;;;5079769;28;46391;-65
2023/05/15 01:11:47;;;;;;;16.90;10.40;;;11.30;71.70;;;;;;5079931;28;46538;-65
2023/05/15 01:14:12;;;;;;;19.60;12.87;;;11.30;71.70;;;;;;5079140;28;47635;-65
2023/05/15 01:16:38;;;;;;;16.87;12.00;;;11.30;71.70;;;;;;5080031;28;45823;-65
2023/05/15 01:19:04;;;;;;;16.43;11.83;;;11.30;71.60;;;;;;5082993;28;46488;-65
2023/05/15 01:21:36;;;;;;;20.10;11.80;;;11.40;71.70;;;;;;5077208;28;46301;-66
2023/05/15 01:24:22;;;;;;;17.00;11.37;;;11.40;71.70;;;;;;5078535;28;47263;-65
2023/05/15 01:27:06;;;;;;;16.43;11.37;;;11.40;71.70;;;;;;5078522;28;46380;-65
2023/05/15 01:29:39;;;;;;;15.27;10.70;;;11.40;71.60;;;;;;5078031;28;46646;-65
2023/05/15 01:32:18;;;;;;;16.60;10.97;;;11.30;71.50;;;;;;5082252;28;46392;-65
2023/05/15 01:34:52;;;;;;;19.33;10.63;;;11.30;71.60;;;;;;5080071;28;46680;-66
2023/05/15 01:37:23;;;;;;;13.90;9.80;;;11.30;71.70;;;;;;5077378;28;46439;-64
2023/05/15 01:39:54;;;;;;;13.83;9.30;;;11.30;71.70;;;;;;5078794;28;46399;-67
2023/05/15 01:42:25;;;;;;;11.43;8.27;;;11.30;71.80;;;;;;5080716;28;46387;-65
2023/05/15 01:44:54;;;;;;;13.10;8.80;;;11.20;71.80;;;;;;5078950;28;46688;-67
2023/05/15 01:47:36;;;;;;;14.80;8.80;;;11.30;72.00;;;;;;5076918;28;46440;-66
2023/05/15 01:50:04;;;;;;;13.70;9.33;;;11.30;72.00;;;;;;5074507;28;51001;-66
2023/05/15 01:52:37;;;;;;;13.20;8.50;;;11.20;71.90;;;;;;5077522;28;45900;-65
2023/05/15 01:55:06;;;;;;;16.80;9.23;;;11.20;71.90;;;;;;5080589;28;47033;-65
2023/05/15 01:57:32;;;;;;;13.00;8.50;;;11.20;72.10;;;;;;5075501;28;46325;-66
2023/05/15 01:59:59;;;;;;;14.30;8.47;;;11.20;72.20;;;;;;5076820;27;46305;-65
2023/05/15 02:02:27;;;;;;;14.40;8.60;;;11.20;72.10;;;;;;5081197;28;46382;-65
2023/05/15 02:04:55;;;;;;;15.33;9.87;;;11.20;72.20;;;;;;5076071;28;47931;-65
2023/05/15 02:07:20;;;;;;;13.93;8.50;;;11.20;72.30;;;;;;5079139;28;46615;-65
2023/05/15 02:09:47;;;;;;;15.00;8.40;;;11.20;72.30;;;;;;5080702;28;46604;-65
2023/05/15 02:12:13;;;;;;;13.63;8.40;;;11.20;72.40;;;;;;5078055;28;45913;-65
2023/05/15 02:14:40;;;;;;;12.40;7.83;;;11.10;72.40;;;;;;5077399;28;46372;-66
2023/05/15 02:17:06;;;;;;;11.43;8.30;;;11.10;72.90;;;;;;5078561;28;46519;-66
2023/05/15 02:19:32;;;;;;;12.80;7.77;;;11.00;73.10;;;;;;5078176;28;46543;-66
2023/05/15 02:21:57;;;;;;;15.90;8.20;;;11.00;73.20;;;;;;5078720;28;46340;-66
2023/05/15 02:24:23;;;;;;;12.57;8.10;;;11.00;73.20;;;;;;5078174;28;47527;-66
2023/05/15 02:27:26;;;;;;;11.73;7.40;;;11.10;73.10;;;;;;5080720;28;46497;-66
2023/05/15 02:30:13;;;;;;;12.93;8.30;;;11.00;73.20;;;;;;5079692;28;46472;-66
2023/05/15 02:32:57;;;;;;;14.37;9.37;;;10.90;73.40;;;;;;5078958;28;46535;-65
2023/05/15 02:35:36;;;;;;;15.10;8.80;;;10.90;73.60;;;;;;5077151;28;47288;-65
2023/05/15 02:38:10;;;;;;;14.33;8.37;;;10.90;73.50;;;;;;5076073;28;46488;-65
2023/05/15 02:40:36;;;;;;;16.30;9.80;;;11.00;73.40;;;;;;5081418;28;45813;-65
2023/05/15 02:43:02;;;;;;;16.10;10.20;;;11.00;73.20;;;;;;5080599;28;46511;-65
2023/05/15 02:45:29;;;;;;;18.30;8.70;;;11.00;73.10;;;;;;5078213;28;45993;-65
2023/05/15 02:47:55;;;;;;;15.77;10.47;;;11.00;73.20;;;;;;5076186;28;46301;-65
2023/05/15 02:50:22;;;;;;;16.83;9.47;;;11.00;73.30;;;;;;5078417;28;46428;-66
2023/05/15 02:52:47;;;;;;;16.27;10.63;;;11.00;73.40;;;;;;5077321;28;46641;-65
2023/05/15 02:55:13;;;;;;;17.93;9.33;;;11.00;73.40;;;;;;5075960;28;46526;-65
2023/05/15 02:57:38;;;;;;;16.50;9.50;;;11.00;73.50;;;;;;5074459;28;45806;-66
2023/05/15 03:00:07;;;;;;;15.10;9.40;;;11.00;73.30;;;;;;5079598;28;46404;-65
2023/05/15 03:02:33;;;;;;;16.87;10.20;;;10.90;73.30;;;;;;5073961;28;46391;-65
2023/05/15 03:04:59;;;;;;;18.10;10.43;;;10.90;73.40;;;;;;5078769;28;47308;-66
2023/05/15 03:07:25;;;;;;;21.43;11.13;;;10.90;73.50;;;;;;5077275;28;46515;-64
2023/05/15 03:09:51;;;;;;;17.40;10.63;;;10.90;73.60;;;;;;5078287;28;46428;-66
2023/05/15 03:12:16;;;;;;;17.97;10.13;;;10.90;73.50;;;;;;5078793;28;46351;-65
2023/05/15 03:14:42;;;;;;;16.53;10.40;;;10.90;73.60;;;;;;5077666;28;46582;-65
2023/05/15 03:17:08;;;;;;;19.90;11.17;;;10.90;73.50;;;;;;5079657;28;46524;-65
2023/05/15 03:19:33;;;;;;;17.37;10.90;;;10.90;73.40;;;;;;5079927;28;46362;-66
2023/05/15 03:21:59;;;;;;;22.50;11.27;;;10.90;73.20;;;;;;5079506;28;46654;-66
2023/05/15 03:24:24;;;;;;;19.47;11.40;;;10.90;73.30;;;;;;5074277;28;46365;-66
2023/05/15 03:26:50;;;;;;;27.03;11.40;;;10.90;73.40;;;;;;5080983;28;46642;-66
2023/05/15 03:29:15;;;;;;;22.87;11.50;;;10.90;73.20;;;;;;5078785;28;45892;-66
2023/05/15 03:31:41;;;;;;;18.07;10.80;;;11.00;73.30;;;;;;5076765;28;46425;-66
2023/05/15 03:34:06;;;;;;;20.30;10.63;;;11.00;73.10;;;;;;5074318;28;46185;-66
2023/05/15 03:36:32;;;;;;;21.60;11.53;;;11.00;73.20;;;;;;5075660;28;46383;-67
2023/05/15 03:38:58;;;;;;;19.67;11.17;;;11.00;73.20;;;;;;5078689;28;46516;-66
2023/05/15 03:41:24;;;;;;;18.57;12.00;;;11.00;73.10;;;;;;5078766;28;46530;-66
2023/05/15 03:43:50;;;;;;;22.73;11.97;;;11.00;73.40;;;;;;5074180;28;46460;-66
2023/05/15 03:46:16;;;;;;;21.10;12.23;;;11.00;73.40;;;;;;5079515;28;45797;-66
2023/05/15 03:48:41;;;;;;;24.50;12.40;;;10.90;73.50;;;;;;5080015;28;45768;-66
2023/05/15 03:51:07;;;;;;;18.97;12.77;;;10.90;73.50;;;;;;5083981;28;46539;-66
2023/05/15 03:53:32;;;;;;;19.87;12.07;;;10.90;73.60;;;;;;5080053;28;48041;-65
2023/05/15 03:55:58;;;;;;;19.83;12.37;;;11.00;73.60;;;;;;5082229;28;46467;-66
2023/05/15 03:58:24;;;;;;;31.83;12.23;;;11.00;73.40;;;;;;5082796;28;46419;-66
2023/05/15 04:00:49;;;;;;;21.00;11.70;;;10.90;73.30;;;;;;5081373;28;46257;-66
2023/05/15 04:03:15;;;;;;;21.20;11.43;;;11.10;73.30;;;;;;5079858;28;46569;-65
2023/05/15 04:05:40;;;;;;;21.60;12.17;;;11.10;73.20;;;;;;5081788;28;46716;-65
2023/05/15 04:08:08;;;;;;;20.50;12.83;;;11.10;73.30;;;;;;5081395;28;46471;-66
2023/05/15 04:10:34;;;;;;;19.10;11.83;;;11.10;73.00;;;;;;5079271;28;46430;-67
2023/05/15 04:12:59;;;;;;;20.17;11.93;;;11.10;73.10;;;;;;5081099;28;47849;-66
2023/05/15 04:15:28;;;;;;;19.93;12.23;;;11.20;73.20;;;;;;5078691;28;46472;-66
2023/05/15 04:17:53;;;;;;;22.90;13.57;;;11.30;73.10;;;;;;5079815;28;46344;-66
2023/05/15 04:20:23;;;;;;;20.00;11.70;;;11.30;74.10;;;;;;5081060;28;46579;-66
2023/05/15 04:22:50;;;;;;;24.00;11.30;;;11.40;72.90;;;;;;5081487;28;46847;-66
2023/05/15 04:25:16;;;;;;;19.53;12.03;;;11.40;72.60;;;;;;5081388;28;46295;-67
2023/05/15 04:27:43;;;;;;;18.20;12.30;;;11.50;72.60;;;;;;5081505;28;46374;-66
2023/05/15 04:30:10;;;;;;;18.63;12.27;;;11.50;72.50;;;;;;5081711;28;46475;-67
2023/05/15 04:32:38;;;;;;;23.57;11.70;;;11.60;72.60;;;;;;5080446;28;46438;-65
2023/05/15 04:35:05;;;;;;;19.20;11.67;;;11.60;72.60;;;;;;5080096;28;46360;-66
2023/05/15 04:37:31;;;;;;;20.63;11.27;;;11.70;72.70;;;;;;5078900;28;46382;-66
2023/05/15 04:39:56;;;;;;;15.73;11.30;;;11.70;72.60;;;;;;5081430;28;46594;-66
2023/05/15 04:42:22;;;;;;;16.83;11.13;;;11.70;72.50;;;;;;5079870;28;46281;-65
2023/05/15 04:44:48;;;;;;;16.97;10.90;;;11.80;72.50;;;;;;5078354;28;46415;-66
2023/05/15 04:47:13;;;;;;;21.03;12.50;;;11.90;72.40;;;;;;5079041;28;46395;-66
2023/05/15 04:49:41;;;;;;;17.70;12.33;;;12.00;72.30;;;;;;5080712;28;46489;-66
2023/05/15 04:52:06;;;;;;;18.50;11.60;;;12.00;72.30;;;;;;5080477;28;46431;-67
2023/05/15 04:54:32;;;;;;;15.73;11.27;;;12.10;72.30;;;;;;5079812;28;46435;-66
2023/05/15 04:56:58;;;;;;;16.93;10.93;;;12.20;72.30;;;;;;5079103;28;46520;-66
2023/05/15 04:59:23;;;;;;;15.50;10.73;;;12.30;72.10;;;;;;5081350;27;46565;-66
2023/05/15 05:01:50;;;;;;;13.40;10.37;;;12.40;72.00;;;;;;5078806;28;47112;-65
2023/05/15 05:04:18;;;;;;;14.70;9.33;;;12.50;72.00;;;;;;5080498;28;46309;-66
2023/05/15 05:06:44;;;;;;;14.40;10.20;;;12.60;71.70;;;;;;5081082;28;45879;-66
2023/05/15 05:09:10;;;;;;;15.13;9.57;;;12.70;71.90;;;;;;5078924;28;45843;-66
2023/05/15 05:11:38;;;;;;;15.60;9.60;;;12.70;71.90;;;;;;5077948;28;46622;-65
2023/05/15 05:14:03;;;;;;;12.30;9.30;;;12.70;72.00;;;;;;5077974;28;46388;-65
2023/05/15 05:16:29;;;;;;;13.00;10.00;;;12.80;72.30;;;;;;5080362;28;46392;-65
2023/05/15 05:18:55;;;;;;;13.63;9.03;;;12.90;72.20;;;;;;5079981;28;46387;-67
2023/05/15 05:21:20;;;;;;;13.50;9.33;;;13.10;73.30;;;;;;5079468;28;47532;-67
2023/05/15 05:23:46;;;;;;;11.30;7.93;;;13.40;72.10;;;;;;5076295;28;45816;-66
2023/05/15 05:26:11;;;;;;;13.13;7.80;;;14.30;71.80;;;;;;5080631;28;46269;-65
2023/05/15 05:28:37;;;;;;;11.10;7.13;;;14.80;71.30;;;;;;5078888;28;46678;-66
2023/05/15 05:31:03;;;;;;;9.37;7.13;;;15.00;70.20;;;;;;5081877;28;46413;-65
2023/05/15 05:33:28;;;;;;;13.00;7.50;;;15.00;69.90;;;;;;5078563;28;46345;-65
2023/05/15 05:35:54;;;;;;;11.47;7.77;;;15.00;69.40;;;;;;5078919;28;46561;-66
2023/05/15 05:38:20;;;;;;;12.40;8.30;;;14.90;69.10;;;;;;5080708;28;46506;-65
2023/05/15 05:40:45;;;;;;;10.57;7.70;;;14.80;69.30;;;;;;5078057;28;46462;-65
2023/05/15 05:43:11;;;;;;;13.80;8.23;;;14.60;68.90;;;;;;5081098;28;46570;-65
2023/05/15 05:45:37;;;;;;;10.60;7.83;;;14.60;68.70;;;;;;5076696;28;46293;-66
2023/05/15 05:48:02;;;;;;;10.97;8.00;;;14.70;68.80;;;;;;5079706;28;46409;-65
2023/05/15 05:50:28;;;;;;;13.60;8.20;;;14.60;67.70;;;;;;5074203;28;47093;-65
2023/05/15 05:52:53;;;;;;;16.37;8.43;;;14.90;66.80;;;;;;5078531;28;46408;-66
2023/05/15 05:55:19;;;;;;;13.40;8.40;;;15.00;66.40;;;;;;5075975;28;45934;-66
2023/05/15 05:57:45;;;;;;;13.00;9.10;;;14.90;66.30;;;;;;5080184;28;46550;-66
2023/05/15 06:00:11;;;;;;;14.40;8.73;;;14.70;65.90;;;;;;5077567;28;46358;-66
2023/05/15 06:02:37;;;;;;;12.93;9.00;;;14.60;66.50;;;;;;5077625;28;46336;-65
2023/05/15 06:05:04;;;;;;;15.40;8.20;;;14.50;66.50;;;;;;5077355;28;46377;-65
2023/05/15 06:07:30;;;;;;;12.23;9.60;;;14.40;66.60;;;;;;5077045;28;46459;-66
2023/05/15 06:09:56;;;;;;;13.77;8.97;;;14.30;66.50;;;;;;5078354;28;46524;-66
2023/05/15 06:12:21;;;;;;;15.60;9.37;;;14.10;66.60;;;;;;5076613;27;46473;-65
2023/05/15 06:14:47;;;;;;;14.73;9.73;;;14.10;66.70;;;;;;5074674;28;45910;-64
2023/05/15 06:17:13;;;;;;;22.73;9.60;;;13.90;67.00;;;;;;5079787;28;46756;-65
2023/05/15 06:19:38;;;;;;;12.83;9.70;;;13.70;67.30;;;;;;5079133;28;46423;-65
2023/05/15 06:22:04;;;;;;;14.43;10.07;;;13.70;67.40;;;;;;5079213;28;46504;-65
2023/05/15 06:24:30;;;;;;;13.23;10.20;;;13.80;67.10;;;;;;5076985;28;45863;-66
2023/05/15 06:26:55;;;;;;;16.20;10.00;;;13.80;67.00;;;;;;5077408;28;46652;-66
2023/05/15 06:29:21;;;;;;;17.23;9.27;;;13.80;67.00;;;;;;5080044;28;46542;-65
2023/05/15 06:31:47;;;;;;;13.37;9.73;;;13.80;67.10;;;;;;5077048;27;46439;-65
2023/05/15 06:34:12;;;;;;;12.83;8.50;;;13.80;67.30;;;;;;5076681;28;46371;-65
2023/05/15 06:36:38;;;;;;;13.10;9.00;;;13.80;67.40;;;;;;5078744;28;46571;-66
2023/05/15 06:39:04;;;;;;;12.70;8.80;;;14.00;66.70;;;;;;5077549;28;45988;-66
2023/05/15 06:41:31;;;;;;;11.30;7.10;;;14.10;66.30;;;;;;5078350;28;46381;-66
2023/05/15 06:43:56;;;;;;;13.60;7.60;;;14.60;68.20;;;;;;5076169;28;46318;-67
2023/05/15 06:46:22;;;;;;;10.80;7.60;;;15.10;68.50;;;;;;5075739;28;46473;-65
2023/05/15 06:48:47;;;;;;;12.17;8.00;;;15.40;67.00;;;;;;5079442;28;47278;-67
2023/05/15 06:51:13;;;;;;;10.87;8.23;;;15.40;65.60;;;;;;5076640;28;46437;-66
2023/05/15 06:53:40;;;;;;;13.60;7.87;;;15.30;64.70;;;;;;5077674;28;45969;-67
2023/05/15 06:56:06;;;;;;;11.40;8.83;;;14.90;64.70;;;;;;5074643;28;46495;-67
2023/05/15 06:58:32;;;;;;;13.30;7.93;;;14.50;63.80;;;;;;5077061;28;46339;-66
2023/05/15 07:00:57;;;;;;;14.50;8.67;;;14.30;64.30;;;;;;5077894;28;46506;-66
2023/05/15 07:03:24;;;;;;;11.80;8.67;;;14.00;64.80;;;;;;5077711;28;46439;-67
2023/05/15 07:05:50;;;;;;;12.87;8.60;;;13.80;65.20;;;;;;5078309;28;46750;-65
2023/05/15 07:08:16;;;;;;;14.40;8.77;;;13.80;66.60;;;;;;5077610;28;46406;-66
2023/05/15 07:10:42;;;;;;;11.13;8.27;;;13.90;65.20;;;;;;5078367;28;46968;-67
2023/05/15 07:13:07;;;;;;;15.43;8.33;;;13.90;65.10;;;;;;5074320;28;46524;-64
2023/05/15 07:15:33;;;;;;;13.07;9.03;;;14.10;64.60;;;;;;5077821;28;46378;-65
2023/05/15 07:17:58;;;;;;;16.43;9.43;;;14.40;64.10;;;;;;5078174;28;46519;-67
2023/05/15 07:20:24;;;;;;;13.93;9.50;;;14.60;63.30;;;;;;5074982;28;46330;-66
2023/05/15 07:22:49;;;;;;;15.63;8.60;;;14.80;62.60;;;;;;5077764;28;46430;-66
2023/05/15 07:25:15;;;;;;;14.37;8.30;;;15.20;63.10;;;;;;5075474;28;46345;-64
2023/05/15 07:27:41;;;;;;;11.90;8.50;;;15.10;61.20;;;;;;5075387;28;46472;-65
2023/05/15 07:30:08;;;;;;;11.03;8.13;;;15.10;60.90;;;;;;5078244;28;46267;-65
2023/05/15 07:32:34;;;;;;;12.63;8.17;;;15.20;61.10;;;;;;5074083;28;46339;-64
2023/05/15 07:35:00;;;;;;;12.60;7.80;;;15.30;61.10;;;;;;5079101;28;46723;-65
2023/05/15 07:37:25;;;;;;;10.40;7.40;;;15.30;60.80;;;;;;5077417;28;46948;-65
2023/05/15 07:39:51;;;;;;;12.63;8.47;;;15.50;60.40;;;;;;5078910;28;45813;-65
2023/05/15 07:42:16;;;;;;;10.10;7.40;;;15.80;60.00;;;;;;5076026;28;46403;-64
2023/05/15 07:44:42;;;;;;;10.43;7.83;;;16.20;58.90;;;;;;5075114;28;46214;-64
2023/05/15 07:47:08;;;;;;;13.17;7.50;;;16.60;57.70;;;;;;5078745;28;47091;-66
2023/05/15 07:49:33;;;;;;;11.60;7.60;;;16.70;57.80;;;;;;5074420;28;46524;-64
2023/05/15 07:52:00;;;;;;;11.90;7.00;;;16.80;57.90;;;;;;5077339;28;45809;-68
2023/05/15 07:54:26;;;;;;;10.83;8.03;;;16.90;57.50;;;;;;5074903;28;46338;-66
2023/05/15 07:56:52;;;;;;;18.50;7.77;;;16.80;56.10;;;;;;5076670;28;47205;-64
2023/05/15 07:59:18;;;;;;;13.43;7.43;;;16.80;56.90;;;;;;5075764;28;46478;-64
2023/05/15 08:01:43;;;;;;;9.17;6.40;;;16.90;56.60;;;;;;5077080;28;46466;-66
2023/05/15 08:04:09;;;;;;;11.23;7.43;;;16.60;55.30;;;;;;5075837;28;46435;-66
2023/05/15 08:06:38;;;;;;;11.30;7.77;;;16.20;56.40;;;;;;5076816;28;46361;-67
2023/05/15 08:09:04;;;;;;;17.70;6.90;;;16.00;57.20;;;;;;5076710;28;46421;-67
2023/05/15 08:11:29;;;;;;;12.03;7.67;;;16.20;57.40;;;;;;5076765;28;46448;-65
2023/05/15 08:13:55;;;;;;;8.00;5.80;;;16.40;56.80;;;;;;5077968;28;46471;-66
2023/05/15 08:16:21;;;;;;;11.23;7.47;;;16.60;56.00;;;;;;5078470;28;46370;-66
2023/05/15 08:18:46;;;;;;;12.20;7.83;;;16.70;55.60;;;;;;5075297;28;46326;-66
2023/05/15 08:21:12;;;;;;;10.07;6.70;;;17.00;55.30;;;;;;5076282;28;46586;-66
2023/05/15 08:23:37;;;;;;;13.30;7.70;;;17.20;55.00;;;;;;5076648;28;46595;-66
2023/05/15 08:26:03;;;;;;;8.30;6.00;;;17.60;54.40;;;;;;5077709;28;46556;-65
2023/05/15 08:28:29;;;;;;;10.30;6.90;;;18.50;52.20;;;;;;5068771;28;46551;-66
2023/05/15 08:30:54;;;;;;;10.67;7.30;;;18.50;50.90;;;;;;5076033;28;46393;-67
2023/05/15 08:33:20;;;;;;;10.13;7.20;;;18.50;50.10;;;;;;5076386;28;46681;-66
2023/05/15 08:35:45;;;;;;;9.33;7.20;;;18.50;50.00;;;;;;5076290;27;46460;-65
2023/05/15 08:38:11;;;;;;;11.27;6.73;;;18.60;47.10;;;;;;5078225;28;46463;-65
2023/05/15 08:40:38;;;;;;;10.57;7.33;;;18.30;47.50;;;;;;5077165;28;46352;-65
2023/05/15 08:43:12;;;;;;;11.40;7.97;;;18.50;48.50;;;;;;5077765;28;46408;-65
2023/05/15 08:45:38;;;;;;;12.00;6.80;;;18.30;47.80;;;;;;5080849;28;47282;-65
2023/05/15 08:48:19;;;;;;;10.00;7.10;;;18.00;48.20;;;;;;5081128;28;46414;-65
2023/05/15 08:50:46;;;;;;;9.53;7.20;;;17.80;48.30;;;;;;5080535;28;46603;-65
2023/05/15 08:53:12;;;;;;;11.67;6.77;;;17.90;48.20;;;;;;5079772;28;46357;-64
2023/05/15 08:55:38;;;;;;;10.40;7.00;;;17.50;47.70;;;;;;5079329;28;46225;-64
2023/05/15 08:58:04;;;;;;;8.37;6.27;;;17.40;48.70;;;;;;5079398;28;46446;-62
2023/05/15 09:00:30;;;;;;;8.83;6.13;;;17.50;48.80;;;;;;5080679;28;46581;-65
2023/05/15 09:03:00;;;;;;;10.03;6.33;;;18.00;48.10;;;;;;5080498;28;46299;-63
2023/05/15 09:05:29;;;;;;;9.00;5.60;;;18.00;47.30;;;;;;5079160;28;46585;-64
2023/05/15 09:07:55;;;;;;;12.03;6.60;;;17.90;47.10;;;;;;5077831;28;45804;-65
2023/05/15 09:10:22;;;;;;;7.80;5.77;;;17.90;48.00;;;;;;5079000;28;46419;-65
2023/05/15 09:12:50;;;;;;;9.60;5.93;;;18.00;47.70;;;;;;5079539;28;45792;-65
2023/05/15 09:15:20;;;;;;;10.33;6.23;;;17.70;47.80;;;;;;5078718;28;46427;-64
2023/05/15 09:17:47;;;;;;;8.97;5.70;;;17.80;48.50;;;;;;5078524;28;46309;-66
2023/05/15 09:20:35;;;;;;;7.43;5.70;;;17.50;48.20;;;;;;5080547;28;45849;-66
2023/05/15 09:23:03;;;;;;;9.70;6.50;;;17.20;49.20;;;;;;5080606;28;46344;-66
2023/05/15 09:25:51;;;;;;;9.60;6.10;;;17.30;50.10;;;;;;5077615;28;46517;-65
2023/05/15 09:28:30;;;;;;;10.47;5.83;;;17.50;49.90;;;;;;5079529;28;46318;-65
2023/05/15 09:31:01;;;;;;;8.30;5.33;;;18.00;49.60;;;;;;5076838;28;46502;-68
2023/05/15 09:33:37;;;;;;;9.00;5.80;;;18.30;48.80;;;;;;5077651;28;46634;-68
2023/05/15 09:36:05;;;;;;;9.07;5.60;;;18.50;47.30;;;;;;5077744;28;46405;-67
2023/05/15 09:38:41;;;;;;;7.60;5.90;;;18.90;47.70;;;;;;5077695;28;45952;-66
2023/05/15 09:41:08;;;;;;;11.03;5.80;;;18.80;45.20;;;;;;5079173;28;46412;-67
2023/05/15 09:43:36;;;;;;;11.77;5.53;;;19.20;45.40;;;;;;5077392;28;46365;-67
2023/05/15 09:46:02;;;;;;;7.83;5.77;;;19.50;43.60;;;;;;5076397;27;46721;-66
2023/05/15 09:48:29;;;;;;;11.03;5.63;;;19.70;42.70;;;;;;5078888;28;46474;-66
2023/05/15 09:50:55;;;;;;;8.30;5.43;;;19.80;41.00;;;;;;5079996;28;46375;-68
2023/05/15 09:53:22;;;;;;;7.50;5.60;;;19.60;40.30;;;;;;5078573;28;46536;-67
2023/05/15 09:55:48;;;;;;;8.20;5.60;;;19.40;40.90;;;;;;5075684;28;47112;-67
2023/05/15 09:58:16;;;;;;;8.33;5.37;;;19.30;40.30;;;;;;5077945;28;46354;-69
2023/05/15 10:00:43;;;;;;;6.80;4.93;;;19.90;40.00;;;;;;5079147;28;46062;-66
2023/05/15 10:03:10;;;;;;;7.57;5.10;;;20.20;39.00;;;;;;5096102;27;46471;-67
2023/05/15 10:05:36;;;;;;;7.27;5.13;;;20.30;38.80;;;;;;5076316;28;46172;-67
2023/05/15 10:08:02;;;;;;;7.50;5.40;;;20.10;38.60;;;;;;5079339;28;46423;-67
2023/05/15 10:10:28;;;;;;;8.70;5.30;;;19.50;38.90;;;;;;5076442;28;46463;-67
2023/05/15 10:12:58;;;;;;;6.67;5.20;;;19.40;39.00;;;;;;5080567;28;46345;-68
2023/05/15 10:15:25;;;;;;;7.97;5.13;;;19.30;39.90;;;;;;5079346;28;46379;-67
2023/05/15 10:17:51;;;;;;;8.07;5.10;;;19.70;39.60;;;;;;5080016;28;46336;-66
2023/05/15 10:20:19;;;;;;;9.20;5.50;;;19.80;38.80;;;;;;5076011;28;46737;-67
2023/05/15 10:22:49;;;;;;;8.67;4.40;;;19.40;38.50;;;;;;5078123;28;46499;-67
2023/05/15 10:25:15;;;;;;;6.90;4.90;;;19.80;38.40;;;;;;5077007;28;47079;-66
2023/05/15 10:27:42;;;;;;;6.23;3.97;;;20.40;36.70;;;;;;5077857;28;46563;-67
2023/05/15 10:30:10;;;;;;;6.90;4.87;;;20.50;35.50;;;;;;5079161;27;46671;-67
2023/05/15 10:32:36;;;;;;;7.00;4.43;;;20.60;34.60;;;;;;5075127;28;46399;-68
2023/05/15 10:35:02;;;;;;;8.60;4.40;;;20.40;34.40;;;;;;5078318;28;47621;-67
2023/05/15 10:37:29;;;;;;;6.93;4.60;;;19.90;34.50;;;;;;5078901;28;45807;-67
2023/05/15 10:39:57;;;;;;;7.10;4.63;;;19.40;35.50;;;;;;5078961;28;46650;-66
2023/05/15 10:42:27;;;;;;;6.10;4.60;;;18.90;36.10;;;;;;5080363;28;46389;-66
2023/05/15 10:44:58;;;;;;;6.83;4.83;;;18.50;37.30;;;;;;5078386;28;46650;-65
2023/05/15 10:47:25;;;;;;;8.73;6.07;;;18.30;38.80;;;;;;5078572;28;45875;-64
2023/05/15 10:49:51;;;;;;;7.00;5.10;;;18.20;40.10;;;;;;5080097;28;46607;-64
2023/05/15 10:52:17;;;;;;;6.70;4.87;;;18.10;41.10;;;;;;5078694;28;46375;-65
2023/05/15 10:54:42;;;;;;;9.33;5.20;;;17.80;41.30;;;;;;5072200;28;47346;-66
2023/05/15 10:57:09;;;;;;;7.23;4.30;;;17.60;42.10;;;;;;5071192;27;46490;-66
2023/05/15 10:59:34;;;;;;;6.60;4.93;;;17.40;42.50;;;;;;5071302;28;46849;-65
2023/05/15 11:02:28;;;;;;;7.80;5.33;;;17.10;43.70;;;;;;5071273;28;46443;-65
2023/05/15 11:05:05;;;;;;;7.00;4.90;;;17.10;45.00;;;;;;5073338;28;46192;-65
2023/05/15 11:07:30;;;;;;;8.43;5.60;;;17.00;44.90;;;;;;5067066;28;46473;-64
2023/05/15 11:09:56;;;;;;;7.50;5.37;;;16.90;44.80;;;;;;5078720;28;46454;-64
2023/05/15 11:12:22;;;;;;;6.87;4.40;;;17.10;45.00;;;;;;5078002;28;46418;-64
2023/05/15 11:14:51;;;;;;;8.73;4.20;;;17.20;45.00;;;;;;5075094;28;46472;-65
2023/05/15 11:17:17;;;;;;;5.40;3.80;;;17.40;44.00;;;;;;5078632;28;46457;-63
2023/05/15 11:19:48;;;;;;;4.30;3.03;;;17.70;44.60;;;;;;5075274;28;46475;-65
2023/05/15 11:22:24;;;;;;;7.33;2.90;;;17.80;42.80;;;;;;5077475;28;46561;-65
2023/05/15 11:25:03;;;;;;;4.50;3.30;;;18.00;42.30;;;;;;5075462;28;47137;-64
2023/05/15 11:27:45;;;;;;;4.43;2.10;;;18.10;42.20;;;;;;5069557;28;46711;-64
2023/05/15 11:30:21;;;;;;;3.60;1.93;;;17.80;40.40;;;;;;5072774;28;46471;-65
2023/05/15 11:32:46;;;;;;;3.80;2.30;;;17.70;39.50;;;;;;5072384;28;46776;-65
2023/05/15 11:35:17;;;;;;;3.93;2.27;;;17.80;38.70;;;;;;5076577;28;46543;-65
2023/05/15 11:37:46;;;;;;;6.17;2.23;;;18.10;37.70;;;;;;5076411;28;46342;-64
2023/05/15 11:40:13;;;;;;;4.07;2.50;;;18.20;34.20;;;;;;5076894;28;45922;-66
2023/05/15 11:42:40;;;;;;;3.60;2.20;;;18.20;32.90;;;;;;5076134;28;46392;-66
2023/05/15 11:45:08;;;;;;;4.00;2.50;;;18.50;32.70;;;;;;5075070;28;46429;-66
2023/05/15 11:47:35;;;;;;;6.97;2.50;;;18.70;33.00;;;;;;5077881;28;46406;-67
2023/05/15 11:50:03;;;;;;;5.57;2.40;;;18.60;31.90;;;;;;5076664;28;46329;-65
2023/05/15 11:52:30;;;;;;;3.80;2.53;;;18.90;32.70;;;;;;5077843;28;46346;-66
2023/05/15 11:54:57;;;;;;;3.93;2.50;;;19.20;32.20;;;;;;5076283;28;46710;-63
2023/05/15 11:57:23;;;;;;;4.70;2.50;;;19.20;31.50;;;;;;5077125;28;46478;-65
2023/05/15 11:59:53;;;;;;;4.70;2.70;;;19.30;31.60;;;;;;5076375;28;46325;-66
2023/05/15 12:02:19;;;;;;;3.80;2.60;;;19.30;31.60;;;;;;5076071;28;46468;-66
2023/05/15 12:04:48;;;;;;;6.73;4.00;;;19.10;31.30;;;;;;5076358;28;46390;-65
2023/05/15 12:07:13;;;;;;;6.97;4.90;;;18.70;32.90;;;;;;5073961;28;46380;-65
2023/05/15 12:09:39;;;;;;;6.47;4.80;;;19.00;33.20;;;;;;5075756;28;45875;-65
2023/05/15 12:12:11;;;;;;;7.90;4.30;;;19.30;34.00;;;;;;5081850;28;46472;-66
2023/05/15 12:14:38;;;;;;;5.80;4.07;;;19.40;34.50;;;;;;5077519;28;47166;-66
2023/05/15 12:17:04;;;;;;;5.50;3.60;;;19.50;35.30;;;;;;5079198;28;46359;-66
2023/05/15 12:19:32;;;;;;;6.73;4.30;;;19.60;35.60;;;;;;5081085;28;46353;-66
2023/05/15 12:21:57;;;;;;;4.60;3.47;;;19.70;35.80;;;;;;5082031;28;46356;-65
2023/05/15 12:24:25;;;;;;;4.80;3.03;;;20.00;35.60;;;;;;5081549;28;46434;-64
2023/05/15 12:26:50;;;;;;;7.70;3.87;;;20.30;35.00;;;;;;5076483;28;46442;-66
2023/05/15 12:29:16;;;;;;;6.00;3.97;;;20.50;34.50;;;;;;5080792;28;46428;-65
2023/05/15 12:31:42;;;;;;;6.73;4.20;;;20.30;34.40;;;;;;5080476;28;46352;-65
2023/05/15 12:34:09;;;;;;;5.93;4.10;;;20.00;34.00;;;;;;5079857;28;47165;-65
2023/05/15 12:36:35;;;;;;;5.63;3.80;;;20.20;34.20;;;;;;5077815;28;46397;-67
2023/05/15 12:39:06;;;;;;;5.60;4.00;;;20.60;34.60;;;;;;5079172;28;46458;-64